• vieta
  • image
  • image
  • image
mod_vvisit_countermod_vvisit_countermod_vvisit_countermod_vvisit_countermod_vvisit_countermod_vvisit_counter
mod_vvisit_counterŠiandien116
mod_vvisit_counterVakar517
mod_vvisit_counterŠią savaitę2271
mod_vvisit_counterPraėjusią savaitę6203
mod_vvisit_counterŠį mėnesį14967
mod_vvisit_counterPraėjusį mėnesį16929
mod_vvisit_counterViso977893

Mes turime: 3 svečius, 1 bots online
Jūsų IP: 54.80.83.123
 , 
Šiandien: Rugs 20, 2018
Oro uostas / Naujienos / 2017 Rugsėjis

2017 Rugsėjis

Informacinis pranešimas dėl Savivaldybės įmonės Šiaulių oro uostas žemės sklypo dalių (B, C, D, E) nuomos aukciono būdu

Aukciono data keičiama iš 2017-10-02 d. į 2017-10-20 d.

Savivaldybės įmonė Šiaulių oro uostas organizuoja valstybinės žemės sklypo, esančio Šiaulių m sav. Šiaulių m. Aviacijos g. 5 (unikalus numeris 4400-3221-8923), dalių nuomos aukcioną, vadovaujantis Lietuvos Respublikos Vyriausybės 2006 m. lapkričio 8 d. nutarimu Nr. 1098 „Dėl tarptautinių oro uostų žemės nuomos“ patvirtintu Tarptautinių oro uostų žemės nuomos aukciono būdu tvarkos aprašu, Savivaldybės įmonės Šiaulių oro uostas žemės nuomos aukciono būdu sąlygomis bei Žemės nuomos sutarties projekte pateikta informacija.

Aukciono dalyvis turės pateikti: Potencialių Aukciono dalyvių (jei ūkio subjektai veikia jungtinės veiklos pagrindu, kiekvieno iš partnerių) atitikties nacionalinio saugumo interesams įvertinimo komisijos, sudarytos Lietuvos Respublikos ministro pirmininko 2010 m. sausio 13 d. potvarkiu Nr. 9 (aktuali redakcija), sprendimas.

Skelbimą ir su juo susijusią informaciją galite rasti tinklapio meniu juostoje, skiltyje įmonė, skelbimai: http://www.siauliai-airport.com/lt/imon/skelbimai.


Šiandien

Ketvirtadienis, 20 Rugsėjis 2018

Orų prognozė aviacijai

[source: ADDS]
METAR
EYSA 200220Z 21008KT 1100 0900S R14L/1300U BR BCFG OVC002 12/12 Q1017 AMB TEMPO 0700 FG RED =
TAF EYSA 200204Z 2003/2012 21008KT 1500 BR SCT003 TEMPO 2003/2006 0500 FG VV002 BECMG 2006/2007 9000 SCT035
TAF
TAF EYSA 200204Z 2003/2012 21008KT 1500 BR SCT003 TEMPO 2003/2006 0500 FG VV002 BECMG 2006/2007 9000 SCT035 =
SR / SS: 04:10 / 16:32 UTC (EYSA 2018-09-20)

Paieška

Lankytojai

Mes turime 4 svečius online

tic logo lt